Time;durP1;ratioP1;P1;durP2;ratioP2;P2;SDS_P1;SDS_P2;PMS_P1;PMS_P2;Temp;Humidity;BMP_temperature;BMP_pressure;BME280_temperature;BME280_humidity;BME280_pressure;Samples;Min_cycle;Max_cycle;Signal;HPM_P1;HPM_P2
2023/01/17 00:02:45;;;;;;;;;;;;;;;;;;8347554;28;27450;-80
2023/01/17 00:11:05;;;;;;;;;;;;;;;;;;8348143;28;27740;-80
2023/01/17 00:15:05;;;;;;;;;;;;;;;;;;8347861;28;27256;-80
2023/01/17 01:35:48;;;;;;;;;;;;;;;;;;8356453;28;27300;-79
2023/01/17 01:39:48;;;;;;;;;;;;;;;;;;8356973;28;28013;-78
2023/01/17 01:43:48;;;;;;;;;;;;;;;;;;8358368;28;27397;-79
2023/01/17 01:47:48;;;;;;;;;;;;;;;;;;8341476;28;29101;-80
2023/01/17 01:51:48;;;;;;;;;;;;;;;;;;8356702;28;27365;-81
2023/01/17 01:55:48;;;;;;;;;;;;;;;;;;8354530;28;27616;-80
2023/01/17 01:59:48;;;;;;;;;;;;;;;;;;8360492;28;28554;-79
2023/01/17 02:03:48;;;;;;;;;;;;;;;;;;8357786;28;27518;-79
2023/01/17 02:07:48;;;;;;;;;;;;;;;;;;8356981;28;28211;-79
2023/01/17 02:11:48;;;;;;;;;;;;;;;;;;8356977;28;28238;-80
2023/01/17 02:15:48;;;;;;;;;;;;;;;;;;8341309;28;28357;-79
2023/01/17 02:19:49;;;;;;;;;;;;;;;;;;8347843;28;27340;-78
2023/01/17 02:23:49;;;;;;;;;;;;;;;;;;8339667;28;28925;-79
2023/01/17 02:27:49;;;;;;;;;;;;;;;;;;8333609;28;29599;-79
2023/01/17 02:31:49;;;;;;;;;;;;;;;;;;8342371;28;28927;-80
2023/01/17 02:35:49;;;;;;;;;;;;;;;;;;8344826;28;28509;-80
2023/01/17 02:39:49;;;;;;;;;;;;;;;;;;8336502;28;28678;-79
2023/01/17 02:43:49;;;;;;;;;;;;;;;;;;8342479;28;28249;-79
2023/01/17 02:47:49;;;;;;;;;;;;;;;;;;8356970;28;28092;-79
2023/01/17 02:51:49;;;;;;;;;;;;;;;;;;8340397;28;28916;-80
2023/01/17 02:55:49;;;;;;;;;;;;;;;;;;8343705;28;28430;-80
2023/01/17 02:59:49;;;;;;;;;;;;;;;;;;8333083;28;28665;-80
2023/01/17 03:03:50;;;;;;;;;;;;;;;;;;8342497;28;28441;-80
2023/01/17 03:07:50;;;;;;;;;;;;;;;;;;8350617;28;27341;-80
2023/01/17 03:11:50;;;;;;;;;;;;;;;;;;8357853;28;27263;-79
2023/01/17 03:15:50;;;;;;;;;;;;;;;;;;8342381;28;27363;-79
2023/01/17 03:19:50;;;;;;;;;;;;;;;;;;8340500;28;28770;-80
2023/01/17 03:23:50;;;;;;;;;;;;;;;;;;8337716;28;28434;-79
2023/01/17 03:27:50;;;;;;;;;;;;;;;;;;8355247;28;27846;-80
2023/01/17 03:31:50;;;;;;;;;;;;;;;;;;8339377;28;27898;-80
2023/01/17 03:35:51;;;;;;;;;;;;;;;;;;8337302;28;29854;-79
2023/01/17 03:39:51;;;;;;;;;;;;;;;;;;8329001;28;28970;-79
2023/01/17 03:43:51;;;;;;;;;;;;;;;;;;8341993;28;27156;-79
2023/01/17 03:47:52;;;;;;;;;;;;;;;;;;8339468;28;28609;-79
2023/01/17 03:51:52;;;;;;;;;;;;;;;;;;8358301;28;27133;-78
2023/01/17 03:55:52;;;;;;;;;;;;;;;;;;8337716;28;28775;-79
2023/01/17 03:59:52;;;;;;;;;;;;;;;;;;8335316;28;29104;-80
2023/01/17 04:03:54;;;;;;;;;;;;;;;;;;8330932;28;28785;-79
2023/01/17 04:07:54;;;;;;;;;;;;;;;;;;8337456;28;29697;-79
2023/01/17 04:11:54;;;;;;;;;;;;;;;;;;8355268;28;27386;-80
2023/01/17 04:15:54;;;;;;;;;;;;;;;;;;8340522;28;28485;-78
2023/01/17 04:19:54;;;;;;;;;;;;;;;;;;8334215;28;28801;-79
2023/01/17 04:23:54;;;;;;;;;;;;;;;;;;8353662;28;27260;-80
2023/01/17 04:27:54;;;;;;;;;;;;;;;;;;8337984;28;29232;-80
2023/01/17 04:31:54;;;;;;;;;;;;;;;;;;8335940;28;28930;-79
2023/01/17 04:35:54;;;;;;;;;;;;;;;;;;8340091;28;28313;-80
2023/01/17 04:39:55;;;;;;;;;;;;;;;;;;8358632;28;27507;-80
2023/01/17 04:43:55;;;;;;;;;;;;;;;;;;8339623;28;28133;-79
2023/01/17 04:47:55;;;;;;;;;;;;;;;;;;8333973;28;28661;-80
2023/01/17 04:51:55;;;;;;;;;;;;;;;;;;8338252;28;28662;-80
2023/01/17 04:55:55;;;;;;;;;;;;;;;;;;8331947;28;28853;-79
2023/01/17 04:59:55;;;;;;;;;;;;;;;;;;8332831;28;28499;-78
2023/01/17 05:03:55;;;;;;;;;;;;;;;;;;8334992;28;28727;-79
2023/01/17 05:07:55;;;;;;;;;;;;;;;;;;8361661;28;28174;-80
2023/01/17 05:11:55;;;;;;;;;;;;;;;;;;8345484;28;28207;-79
2023/01/17 05:15:56;;;;;;;;;;;;;;;;;;8338426;28;30009;-79
2023/01/17 05:19:56;;;;;;;;;;;;;;;;;;8335544;28;29479;-80
2023/01/17 05:23:56;;;;;;;;;;;;;;;;;;8339531;28;28788;-80
2023/01/17 05:27:58;;;;;;;;;;;;;;;;;;8341062;28;29920;-81
2023/01/17 05:31:58;;;;;;;;;;;;;;;;;;8335532;28;29021;-79
2023/01/17 05:35:58;;;;;;;;;;;;;;;;;;8339461;28;28731;-81
2023/01/17 05:39:59;;;;;;;;;;;;;;;;;;8343768;28;28556;-78
2023/01/17 05:43:59;;;;;;;;;;;;;;;;;;8353242;28;27455;-80
2023/01/17 05:47:59;;;;;;;;;;;;;;;;;;8341608;28;28440;-79
2023/01/17 05:51:59;;;;;;;;;;;;;;;;;;8341332;28;29087;-79
2023/01/17 05:55:59;;;;;;;;;;;;;;;;;;8360558;28;27484;-79
2023/01/17 05:59:59;;;;;;;;;;;;;;;;;;8338818;28;29135;-80
2023/01/17 06:03:59;;;;;;;;;;;;;;;;;;8353963;28;27791;-80
2023/01/17 06:07:59;;;;;;;;;;;;;;;;;;8334695;28;29016;-79
2023/01/17 06:11:59;;;;;;;;;;;;;;;;;;8358759;28;27364;-79
2023/01/17 06:16:01;;;;;;;;;;;;;;;;;;8336552;28;28561;-79
2023/01/17 06:20:02;;;;;;;;;;;;;;;;;;8334177;28;28533;-79
2023/01/17 06:24:02;;;;;;;;;;;;;;;;;;8336602;28;29026;-78
2023/01/17 06:28:03;;;;;;;;;;;;;;;;;;8335341;28;27513;-79
2023/01/17 06:32:03;;;;;;;;;;;;;;;;;;8337859;28;28487;-79
2023/01/17 06:36:03;;;;;;;;;;;;;;;;;;8340844;28;28200;-79
2023/01/17 06:40:03;;;;;;;;;;;;;;;;;;8359255;28;27165;-78
2023/01/17 06:44:03;;;;;;;;;;;;;;;;;;8339927;28;29276;-80
2023/01/17 06:48:04;;;;;;;;;;;;;;;;;;8354821;28;27830;-80
2023/01/17 06:52:04;;;;;;;;;;;;;;;;;;8351805;28;27547;-79
2023/01/17 06:56:04;;;;;;;;;;;;;;;;;;8350766;28;28133;-79
2023/01/17 07:00:04;;;;;;;;;;;;;;;;;;8342812;28;28710;-81
2023/01/17 07:04:04;;;;;;;;;;;;;;;;;;8336764;28;28549;-80
2023/01/17 07:08:04;;;;;;;;;;;;;;;;;;8350588;28;27355;-79
2023/01/17 07:12:04;;;;;;;;;;;;;;;;;;8359830;28;27372;-79
2023/01/17 07:16:04;;;;;;;;;;;;;;;;;;8332550;28;29109;-80
2023/01/17 07:20:04;;;;;;;;;;;;;;;;;;8354627;28;27480;-80
2023/01/17 07:24:04;;;;;;;;;;;;;;;;;;8351438;28;27517;-79
2023/01/17 07:28:04;;;;;;;;;;;;;;;;;;8355950;28;27408;-79
2023/01/17 07:32:07;;;;;;;;;;;;;;;;;;8332699;28;28465;-79
2023/01/17 07:36:08;;;;;;;;;;;;;;;;;;8336739;28;28936;-79
2023/01/17 07:40:08;;;;;;;;;;;;;;;;;;8334983;28;28330;-80
2023/01/17 07:44:08;;;;;;;;;;;;;;;;;;8348614;28;28617;-80
2023/01/17 07:48:08;;;;;;;;;;;;;;;;;;8352514;28;27646;-80
2023/01/17 07:52:08;;;;;;;;;;;;;;;;;;8339452;28;29528;-80
2023/01/17 07:56:08;;;;;;;;;;;;;;;;;;8348399;28;27539;-81
2023/01/17 08:00:08;;;;;;;;;;;;;;;;;;8329309;28;28683;-80
2023/01/17 08:04:09;;;;;;;;;;;;;;;;;;8336042;28;28538;-80
2023/01/17 08:08:09;;;;;;;;;;;;;;;;;;8352147;28;27967;-80
2023/01/17 08:12:09;;;;;;;;;;;;;;;;;;8337424;28;28721;-80
2023/01/17 08:16:09;;;;;;;;;;;;;;;;;;8333305;28;28528;-80
2023/01/17 08:20:09;;;;;;;;;;;;;;;;;;8332890;28;28973;-79
2023/01/17 08:24:09;;;;;;;;;;;;;;;;;;8350935;28;27459;-80
2023/01/17 08:28:09;;;;;;;;;;;;;;;;;;8350585;28;27580;-79
2023/01/17 08:32:09;;;;;;;;;;;;;;;;;;8352098;28;28812;-79
2023/01/17 08:36:10;;;;;;;;;;;;;;;;;;8353133;28;27825;-79
2023/01/17 08:40:10;;;;;;;;;;;;;;;;;;8351983;28;27737;-80
2023/01/17 08:44:10;;;;;;;;;;;;;;;;;;8345527;28;29201;-79
2023/01/17 08:48:10;;;;;;;;;;;;;;;;;;8358113;28;27777;-79
2023/01/17 08:52:13;;;;;;;;;;;;;;;;;;8339642;28;28437;-80
2023/01/17 08:56:13;;;;;;;;;;;;;;;;;;8358689;28;27265;-80
2023/01/17 09:00:13;;;;;;;;;;;;;;;;;;8354172;28;27682;-81
2023/01/17 09:04:13;;;;;;;;;;;;;;;;;;8355705;28;27643;-80
2023/01/17 09:08:13;;;;;;;;;;;;;;;;;;8360623;28;27953;-80
2023/01/17 09:12:13;;;;;;;;;;;;;;;;;;8353801;28;27744;-79
2023/01/17 09:16:13;;;;;;;;;;;;;;;;;;8355480;28;27392;-79
2023/01/17 09:20:13;;;;;;;;;;;;;;;;;;8343219;28;28588;-78
2023/01/17 09:24:14;;;;;;;;;;;;;;;;;;8343551;28;28668;-79
2023/01/17 09:28:14;;;;;;;;;;;;;;;;;;8344314;28;28687;-78
2023/01/17 09:32:16;;;;;;;;;;;;;;;;;;8363687;28;27159;-79
2023/01/17 09:36:16;;;;;;;;;;;;;;;;;;8334661;28;28642;-79
2023/01/17 09:40:16;;;;;;;;;;;;;;;;;;8356222;28;28107;-79
2023/01/17 09:44:16;;;;;;;;;;;;;;;;;;8340315;28;28877;-80
2023/01/17 09:48:16;;;;;;;;;;;;;;;;;;8361279;28;28020;-78
2023/01/17 09:52:16;;;;;;;;;;;;;;;;;;8341025;28;29643;-79
2023/01/17 09:56:16;;;;;;;;;;;;;;;;;;8357227;28;27540;-79
2023/01/17 10:00:16;;;;;;;;;;;;;;;;;;8355717;28;27336;-79
2023/01/17 10:04:17;;;;;;;;;;;;;;;;;;8353176;28;27441;-78
2023/01/17 10:08:17;;;;;;;;;;;;;;;;;;8361290;28;27278;-79
2023/01/17 10:12:17;;;;;;;;;;;;;;;;;;8355208;28;27632;-79
2023/01/17 10:16:17;;;;;;;;;;;;;;;;;;8351716;28;27852;-80
2023/01/17 10:20:17;;;;;;;;;;;;;;;;;;8339431;28;28449;-80
2023/01/17 10:24:18;;;;;;;;;;;;;;;;;;8354394;28;27961;-78
2023/01/17 10:28:18;;;;;;;;;;;;;;;;;;8350337;28;27902;-78
2023/01/17 10:32:18;;;;;;;;;;;;;;;;;;8339076;28;28275;-78
2023/01/17 10:36:19;;;;;;;;;;;;;;;;;;8351996;28;28273;-79
2023/01/17 10:40:19;;;;;;;;;;;;;;;;;;8356255;28;27337;-80
2023/01/17 10:44:19;;;;;;;;;;;;;;;;;;8353684;28;27711;-79
2023/01/17 10:48:19;;;;;;;;;;;;;;;;;;8340361;28;28789;-80
2023/01/17 10:52:19;;;;;;;;;;;;;;;;;;8359905;28;27178;-79
2023/01/17 10:56:19;;;;;;;;;;;;;;;;;;8334625;28;28441;-79
2023/01/17 11:00:19;;;;;;;;;;;;;;;;;;8355197;28;28147;-78
2023/01/17 11:04:20;;;;;;;;;;;;;;;;;;8350634;28;27766;-79
2023/01/17 11:08:21;;;;;;;;;;;;;;;;;;8333524;28;28823;-79
2023/01/17 11:12:21;;;;;;;;;;;;;;;;;;8338151;28;28869;-80
2023/01/17 11:16:21;;;;;;;;;;;;;;;;;;8351734;28;27293;-80
2023/01/17 11:20:22;;;;;;;;;;;;;;;;;;8357603;28;27956;-80
2023/01/17 11:24:22;;;;;;;;;;;;;;;;;;8358668;28;27453;-79
2023/01/17 11:28:24;;;;;;;;;;;;;;;;;;8353552;28;28256;-80
2023/01/17 11:32:24;;;;;;;;;;;;;;;;;;8338462;28;29905;-79
2023/01/17 11:36:28;;;;;;;;;;;;;;;;;;8333263;28;29321;-80
2023/01/17 11:40:29;;;;;;;;;;;;;;;;;;8351080;28;27898;-78
2023/01/17 11:44:29;;;;;;;;;;;;;;;;;;8352126;28;28237;-78
2023/01/17 11:48:29;;;;;;;;;;;;;;;;;;8351101;28;27503;-80
2023/01/17 11:52:29;;;;;;;;;;;;;;;;;;8330836;28;28693;-81
2023/01/17 11:56:29;;;;;;;;;;;;;;;;;;8351041;28;27869;-80
2023/01/17 12:00:29;;;;;;;;;;;;;;;;;;8350481;28;27613;-80
2023/01/17 12:04:29;;;;;;;;;;;;;;;;;;8340221;28;28564;-80
2023/01/17 12:08:29;;;;;;;;;;;;;;;;;;8349448;28;27320;-80
2023/01/17 12:16:49;;;;;;;;;;;;;;;;;;8352819;28;27201;-79
2023/01/17 12:20:49;;;;;;;;;;;;;;;;;;8349251;28;27549;-79
2023/01/17 12:24:49;;;;;;;;;;;;;;;;;;8332415;28;28779;-78
2023/01/17 12:28:49;;;;;;;;;;;;;;;;;;8357693;28;27954;-80
2023/01/17 12:32:49;;;;;;;;;;;;;;;;;;8336638;28;28574;-78
2023/01/17 12:36:49;;;;;;;;;;;;;;;;;;8334048;28;28957;-79
2023/01/17 12:40:49;;;;;;;;;;;;;;;;;;8337898;28;28808;-78
2023/01/17 12:44:50;;;;;;;;;;;;;;;;;;8347261;28;27270;-78
2023/01/17 12:48:50;;;;;;;;;;;;;;;;;;8331270;28;28874;-79
2023/01/17 12:52:50;;;;;;;;;;;;;;;;;;8332244;28;28645;-78
2023/01/17 12:56:50;;;;;;;;;;;;;;;;;;8334917;28;29238;-80
2023/01/17 13:00:50;;;;;;;;;;;;;;;;;;8335197;28;29481;-78
2023/01/17 13:04:51;;;;;;;;;;;;;;;;;;8344070;28;28086;-79
2023/01/17 13:08:51;;;;;;;;;;;;;;;;;;8351161;28;27417;-78
2023/01/17 13:12:51;;;;;;;;;;;;;;;;;;8347576;28;27947;-78
2023/01/17 13:16:52;;;;;;;;;;;;;;;;;;8357498;28;27507;-79
2023/01/17 13:20:54;;;;;;;;;;;;;;;;;;8334001;28;29221;-79
2023/01/17 13:24:55;;;;;;;;;;;;;;;;;;8347411;28;28098;-79
2023/01/17 13:28:55;;;;;;;;;;;;;;;;;;8341369;28;28282;-79
2023/01/17 13:32:55;;;;;;;;;;;;;;;;;;8353810;28;27192;-79
2023/01/17 13:36:56;;;;;;;;;;;;;;;;;;8357013;28;28378;-78
2023/01/17 13:40:57;;;;;;;;;;;;;;;;;;8354196;28;27513;-78
2023/01/17 13:44:57;;;;;;;;;;;;;;;;;;8339307;28;28497;-79
2023/01/17 13:48:57;;;;;;;;;;;;;;;;;;8336716;28;28380;-79
2023/01/17 13:52:59;;;;;;;;;;;;;;;;;;8337651;28;28873;-79
2023/01/17 13:56:59;;;;;;;;;;;;;;;;;;8337753;28;29468;-79
2023/01/17 14:00:59;;;;;;;;;;;;;;;;;;8334448;28;28737;-78
2023/01/17 14:04:59;;;;;;;;;;;;;;;;;;8334516;28;29326;-79
2023/01/17 14:08:59;;;;;;;;;;;;;;;;;;8354699;28;27949;-80
2023/01/17 14:13:00;;;;;;;;;;;;;;;;;;8352117;28;27365;-79
2023/01/17 14:17:00;;;;;;;;;;;;;;;;;;8335534;28;28439;-79
2023/01/17 14:21:00;;;;;;;;;;;;;;;;;;8346371;28;28510;-79
2023/01/17 14:25:00;;;;;;;;;;;;;;;;;;8352422;28;27634;-79
2023/01/17 14:29:00;;;;;;;;;;;;;;;;;;8356006;28;27234;-78
2023/01/17 14:33:00;;;;;;;;;;;;;;;;;;8342187;28;28508;-78
2023/01/17 14:37:00;;;;;;;;;;;;;;;;;;8354197;28;27871;-78
2023/01/17 14:41:00;;;;;;;;;;;;;;;;;;8359498;28;27948;-78
2023/01/17 14:45:00;;;;;;;;;;;;;;;;;;8355502;28;28206;-78
2023/01/17 14:49:00;;;;;;;;;;;;;;;;;;8339286;28;28933;-77
2023/01/17 14:53:00;;;;;;;;;;;;;;;;;;8350044;28;27862;-78
2023/01/17 14:57:01;;;;;;;;;;;;;;;;;;8348390;28;27177;-78
2023/01/17 15:01:01;;;;;;;;;;;;;;;;;;8338609;28;28520;-78
2023/01/17 15:05:01;;;;;;;;;;;;;;;;;;8352551;28;27200;-78
2023/01/17 15:09:02;;;;;;;;;;;;;;;;;;8353057;28;27375;-77
2023/01/17 15:13:02;;;;;;;;;;;;;;;;;;8340752;28;28782;-78
2023/01/17 15:17:02;;;;;;;;;;;;;;;;;;8335334;28;28596;-78
2023/01/17 15:21:02;;;;;;;;;;;;;;;;;;8334201;28;28691;-78
2023/01/17 15:25:02;;;;;;;;;;;;;;;;;;8334601;28;29020;-77
2023/01/17 15:29:02;;;;;;;;;;;;;;;;;;8334564;28;28638;-77
2023/01/17 15:33:02;;;;;;;;;;;;;;;;;;8350896;28;27437;-78
2023/01/17 15:37:02;;;;;;;;;;;;;;;;;;8354328;28;28105;-78
2023/01/17 15:41:02;;;;;;;;;;;;;;;;;;8352932;28;27971;-78
2023/01/17 15:45:02;;;;;;;;;;;;;;;;;;8337884;28;28691;-78
2023/01/17 15:49:05;;;;;;;;;;;;;;;;;;8352889;28;27648;-78
2023/01/17 15:53:07;;;;;;;;;;;;;;;;;;8351932;28;27584;-78
2023/01/17 15:57:07;;;;;;;;;;;;;;;;;;8335930;28;28861;-78
2023/01/17 16:01:08;;;;;;;;;;;;;;;;;;8350957;28;27410;-78
2023/01/17 16:05:08;;;;;;;;;;;;;;;;;;8345383;28;28018;-78
2023/01/17 16:09:08;;;;;;;;;;;;;;;;;;8351130;28;28551;-79
2023/01/17 16:13:08;;;;;;;;;;;;;;;;;;8346243;28;27596;-78
2023/01/17 16:21:11;;;;;;;;;;;;;;;;;;8409306;27;27558;-78
2023/01/17 16:25:11;;;;;;;;;;;;;;;;;;8421354;27;27718;-79
2023/01/17 16:29:11;;;;;;;;;;;;;;;;;;8403476;27;28662;-78
2023/01/17 16:33:11;;;;;;;;;;;;;;;;;;8402879;27;29860;-78
2023/01/17 16:37:12;;;;;;;;;;;;;;;;;;8430628;27;27507;-80
2023/01/17 16:41:12;;;;;;;;;;;;;;;;;;8424209;27;28206;-78
2023/01/17 16:45:12;;;;;;;;;;;;;;;;;;8434802;27;27529;-81
2023/01/17 16:49:12;;;;;;;;;;;;;;;;;;8406556;27;28516;-80
2023/01/17 16:53:12;;;;;;;;;;;;;;;;;;8435916;27;27141;-80
2023/01/17 16:57:13;;;;;;;;;;;;;;;;;;8438248;27;28092;-80
2023/01/17 17:01:16;;;;;;;;;;;;;;;;;;8429933;27;28651;-78
2023/01/17 17:05:16;;;;;;;;;;;;;;;;;;8445549;27;27672;-80
2023/01/17 17:09:17;;;;;;;;;;;;;;;;;;8444457;27;27331;-81
2023/01/17 17:13:17;;;;;;;;;;;;;;;;;;8434454;27;27061;-80
2023/01/17 17:17:17;;;;;;;;;;;;;;;;;;8432645;27;27235;-78
2023/01/17 17:21:17;;;;;;;;;;;;;;;;;;8429864;27;27493;-79
2023/01/17 17:25:17;;;;;;;;;;;;;;;;;;8427804;27;27428;-81
2023/01/17 17:29:17;;;;;;;;;;;;;;;;;;8421444;27;27526;-79
2023/01/17 17:33:18;;;;;;;;;;;;;;;;;;8415868;27;28489;-78
2023/01/17 17:37:18;;;;;;;;;;;;;;;;;;8432575;27;27288;-79
2023/01/17 17:41:18;;;;;;;;;;;;;;;;;;8428447;27;27166;-79
2023/01/17 17:45:18;;;;;;;;;;;;;;;;;;8426081;27;27981;-79
2023/01/17 17:49:21;;;;;;;;;;;;;;;;;;8426450;27;28395;-77
2023/01/17 17:53:21;;;;;;;;;;;;;;;;;;8429806;27;27319;-81
2023/01/17 17:57:21;;;;;;;;;;;;;;;;;;8435138;27;28236;-83
2023/01/17 18:01:22;;;;;;;;;;;;;;;;;;8428676;27;27252;-80
2023/01/17 18:05:22;;;;;;;;;;;;;;;;;;8427798;27;29561;-82
2023/01/17 18:09:22;;;;;;;;;;;;;;;;;;8411418;27;28430;-80
2023/01/17 18:13:23;;;;;;;;;;;;;;;;;;8439596;27;27526;-79
2023/01/17 18:17:23;;;;;;;;;;;;;;;;;;8421992;27;27840;-79
2023/01/17 18:21:23;;;;;;;;;;;;;;;;;;8407762;27;29900;-81
2023/01/17 18:25:24;;;;;;;;;;;;;;;;;;8423796;27;27132;-84
2023/01/17 18:29:24;;;;;;;;;;;;;;;;;;8414159;27;28652;-81
2023/01/17 18:33:24;;;;;;;;;;;;;;;;;;8431487;27;27389;-81
2023/01/17 18:37:24;;;;;;;;;;;;;;;;;;8419554;27;30070;-80
2023/01/17 18:41:24;;;;;;;;;;;;;;;;;;8435574;27;27102;-80
2023/01/17 18:45:24;;;;;;;;;;;;;;;;;;8435410;27;27299;-83
2023/01/17 18:49:24;;;;;;;;;;;;;;;;;;8430861;27;27330;-81
2023/01/17 18:53:24;;;;;;;;;;;;;;;;;;8407557;27;29658;-82
2023/01/17 18:57:24;;;;;;;;;;;;;;;;;;8430463;27;27492;-80
2023/01/17 19:01:24;;;;;;;;;;;;;;;;;;8436165;27;27368;-79
2023/01/17 19:05:24;;;;;;;;;;;;;;;;;;8410155;27;28660;-80
2023/01/17 19:09:24;;;;;;;;;;;;;;;;;;8427277;27;27391;-79
2023/01/17 19:13:24;;;;;;;;;;;;;;;;;;8420212;27;27232;-80
2023/01/17 19:17:25;;;;;;;;;;;;;;;;;;8429456;27;27342;-80
2023/01/17 19:21:25;;;;;;;;;;;;;;;;;;8428020;27;28066;-83
2023/01/17 19:25:25;;;;;;;;;;;;;;;;;;8429506;27;27844;-79
2023/01/17 19:29:25;;;;;;;;;;;;;;;;;;8423650;27;27907;-78
2023/01/17 19:33:25;;;;;;;;;;;;;;;;;;8405358;27;28415;-83
2023/01/17 19:37:26;;;;;;;;;;;;;;;;;;8409217;27;28771;-81
2023/01/17 19:41:28;;;;;;;;;;;;;;;;;;8436569;27;27337;-81
2023/01/17 19:45:28;;;;;;;;;;;;;;;;;;8434546;27;27559;-80
2023/01/17 19:49:28;;;;;;;;;;;;;;;;;;8435317;27;27101;-80
2023/01/17 19:53:28;;;;;;;;;;;;;;;;;;8426812;27;27638;-83
2023/01/17 19:57:33;;;;;;;;;;;;;;;;;;8436876;27;27688;-78
2023/01/17 20:01:33;;;;;;;;;;;;;;;;;;8413890;27;29859;-79
2023/01/17 20:05:34;;;;;;;;;;;;;;;;;;8414260;27;28921;-79
2023/01/17 20:09:34;;;;;;;;;;;;;;;;;;8433111;27;28867;-78
2023/01/17 20:13:34;;;;;;;;;;;;;;;;;;8420530;27;28440;-79
2023/01/17 20:17:34;;;;;;;;;;;;;;;;;;8426251;27;28052;-81
2023/01/17 20:21:36;;;;;;;;;;;;;;;;;;8424635;27;47860;-81
2023/01/17 20:25:36;;;;;;;;;;;;;;;;;;8430334;27;28429;-79
2023/01/17 20:29:39;;;;;;;;;;;;;;;;;;8419719;27;27413;-80
2023/01/17 20:33:39;;;;;;;;;;;;;;;;;;8429379;27;27370;-80
2023/01/17 20:37:39;;;;;;;;;;;;;;;;;;8427598;27;27259;-82
2023/01/17 20:41:39;;;;;;;;;;;;;;;;;;8435119;27;27318;-82
2023/01/17 20:45:39;;;;;;;;;;;;;;;;;;8429792;27;29104;-80
2023/01/17 20:49:40;;;;;;;;;;;;;;;;;;8422958;27;29455;-79
2023/01/17 20:53:40;;;;;;;;;;;;;;;;;;8434297;27;28587;-80
2023/01/17 20:57:40;;;;;;;;;;;;;;;;;;8432278;27;28574;-79
2023/01/17 21:01:42;;;;;;;;;;;;;;;;;;8418533;27;28633;-80
2023/01/17 21:05:42;;;;;;;;;;;;;;;;;;8434980;27;27179;-78
2023/01/17 21:09:42;;;;;;;;;;;;;;;;;;8414001;27;28781;-79
2023/01/17 21:13:42;;;;;;;;;;;;;;;;;;8421933;27;28674;-80
2023/01/17 21:17:43;;;;;;;;;;;;;;;;;;8430593;27;28935;-78
2023/01/17 21:21:43;;;;;;;;;;;;;;;;;;8442152;27;27700;-84
2023/01/17 21:25:43;;;;;;;;;;;;;;;;;;8432577;27;27391;-79
2023/01/17 21:29:43;;;;;;;;;;;;;;;;;;8431740;27;27206;-81
2023/01/17 21:33:43;;;;;;;;;;;;;;;;;;8416250;27;29177;-84
2023/01/17 21:37:43;;;;;;;;;;;;;;;;;;8429443;27;27403;-79
2023/01/17 21:41:44;;;;;;;;;;;;;;;;;;8432478;27;27440;-82
2023/01/17 21:45:44;;;;;;;;;;;;;;;;;;8420508;27;28817;-81
2023/01/17 21:49:45;;;;;;;;;;;;;;;;;;8435043;27;28449;-81
2023/01/17 21:53:45;;;;;;;;;;;;;;;;;;8422357;27;27747;-82
2023/01/17 22:02:09;;;;;;;;;;;;;;;;;;8432112;27;27352;-80
2023/01/17 22:06:09;;;;;;;;;;;;;;;;;;8423988;27;28322;-78
2023/01/17 22:10:09;;;;;;;;;;;;;;;;;;8424290;27;28229;-78
2023/01/17 22:14:09;;;;;;;;;;;;;;;;;;8435370;27;27634;-78
2023/01/17 22:18:09;;;;;;;;;;;;;;;;;;8411045;27;29062;-78
2023/01/17 22:22:09;;;;;;;;;;;;;;;;;;8414339;27;28954;-78
2023/01/17 22:26:10;;;;;;;;;;;;;;;;;;8429551;27;27215;-77
2023/01/17 22:30:11;;;;;;;;;;;;;;;;;;8430431;27;27473;-83
2023/01/17 22:34:12;;;;;;;;;;;;;;;;;;8414635;27;29197;-79
2023/01/17 22:38:12;;;;;;;;;;;;;;;;;;8424321;27;27569;-77
2023/01/17 22:42:13;;;;;;;;;;;;;;;;;;8412770;27;29960;-79
2023/01/17 22:46:14;;;;;;;;;;;;;;;;;;8432088;27;28566;-77
2023/01/17 22:50:14;;;;;;;;;;;;;;;;;;8427075;27;27416;-78
2023/01/17 22:54:14;;;;;;;;;;;;;;;;;;8423196;27;28705;-79
2023/01/17 22:58:14;;;;;;;;;;;;;;;;;;8430276;27;28823;-80
2023/01/17 23:02:14;;;;;;;;;;;;;;;;;;8429973;27;29714;-80
2023/01/17 23:06:14;;;;;;;;;;;;;;;;;;8405959;27;28494;-80
2023/01/17 23:11:37;;;;;;;;;;;;;;;;;;8432506;27;27327;-81
2023/01/17 23:23:12;;;;;;;;;;;;;;;;;;8429211;27;28248;-78
2023/01/17 23:31:31;;;;;;;;;;;;;;;;;;8432619;27;27330;-82
2023/01/17 23:35:31;;;;;;;;;;;;;;;;;;8426382;27;27535;-84
2023/01/17 23:39:31;;;;;;;;;;;;;;;;;;8422543;27;28754;-81
2023/01/17 23:43:31;;;;;;;;;;;;;;;;;;8438830;27;27419;-81
2023/01/17 23:47:31;;;;;;;;;;;;;;;;;;8440453;27;27192;-84
2023/01/17 23:51:31;;;;;;;;;;;;;;;;;;8432646;27;27245;-82
2023/01/17 23:55:32;;;;;;;;;;;;;;;;;;8429273;27;28175;-84
2023/01/17 23:59:32;;;;;;;;;;;;;;;;;;8410995;27;28481;-84
